createdAt,value
2022-08-26T00:00:20.626Z,21.92
2022-08-26T00:01:29.106Z,21.95
2022-08-26T00:02:20.821Z,21.93
2022-08-26T00:03:20.638Z,21.91
2022-08-26T00:04:20.675Z,21.79
2022-08-26T00:05:20.640Z,21.70
2022-08-26T00:06:20.941Z,21.55
2022-08-26T00:07:20.646Z,21.50
2022-08-26T00:08:20.651Z,21.46
2022-08-26T00:09:20.652Z,21.40
2022-08-26T00:10:20.657Z,21.33
2022-08-26T00:11:26.549Z,21.30
2022-08-26T00:12:20.662Z,21.25
2022-08-26T00:13:20.666Z,21.24
2022-08-26T00:14:20.667Z,21.27
2022-08-26T00:15:20.678Z,21.25
2022-08-26T00:16:20.762Z,21.27
2022-08-26T00:17:20.677Z,21.27
2022-08-26T00:18:22.294Z,21.24
2022-08-26T00:19:20.684Z,21.21
2022-08-26T00:20:20.698Z,21.27
2022-08-26T00:21:20.891Z,21.22
2022-08-26T00:22:21.675Z,21.21
2022-08-26T00:23:20.695Z,21.21
2022-08-26T00:24:20.703Z,21.24
2022-08-26T00:25:20.710Z,21.22
2022-08-26T00:26:20.717Z,21.25
2022-08-26T00:27:20.712Z,21.24
2022-08-26T00:28:20.717Z,21.24
2022-08-26T00:29:21.225Z,21.21
2022-08-26T00:30:22.714Z,21.02
2022-08-26T00:31:20.744Z,21.02
2022-08-26T00:32:20.726Z,20.96
2022-08-26T00:33:20.729Z,20.87
2022-08-26T00:34:20.734Z,20.80
2022-08-26T00:35:20.737Z,20.87
2022-08-26T00:36:20.736Z,20.72
2022-08-26T00:37:20.739Z,20.69
2022-08-26T00:38:20.742Z,20.69
2022-08-26T00:39:20.749Z,20.66
2022-08-26T00:40:20.795Z,20.70
2022-08-26T00:41:20.754Z,20.75
2022-08-26T00:42:20.756Z,20.72
2022-08-26T00:43:20.758Z,20.85
2022-08-26T00:44:20.764Z,20.90
2022-08-26T00:45:20.765Z,20.81
2022-08-26T00:46:20.770Z,20.88
2022-08-26T00:47:20.771Z,20.81
2022-08-26T00:48:20.824Z,20.87
2022-08-26T00:49:20.782Z,20.85
2022-08-26T00:50:20.781Z,20.80
2022-08-26T00:51:20.785Z,20.77
2022-08-26T00:52:20.788Z,20.77
2022-08-26T00:53:20.791Z,20.81
2022-08-26T00:54:20.790Z,20.84
2022-08-26T00:55:20.797Z,20.88
2022-08-26T00:56:20.797Z,20.90
2022-08-26T00:57:20.802Z,20.92
2022-08-26T00:58:20.802Z,20.93
2022-08-26T00:59:20.806Z,20.90
2022-08-26T01:00:20.808Z,20.97
2022-08-26T01:01:22.943Z,20.90
2022-08-26T01:02:21.738Z,20.95
2022-08-26T01:03:20.816Z,20.90
2022-08-26T01:04:20.820Z,20.92
2022-08-26T01:05:20.822Z,20.96
2022-08-26T01:06:20.826Z,21.00
2022-08-26T01:07:20.830Z,21.12
2022-08-26T01:08:20.836Z,21.11
2022-08-26T01:09:20.840Z,21.17
2022-08-26T01:10:20.855Z,21.14
2022-08-26T01:11:20.851Z,21.09
2022-08-26T01:12:22.125Z,21.09
2022-08-26T01:13:20.846Z,21.15
2022-08-26T01:14:20.853Z,21.17
2022-08-26T01:15:20.852Z,21.21
2022-08-26T01:16:20.916Z,21.14
2022-08-26T01:17:20.865Z,21.15
2022-08-26T01:18:20.865Z,21.07
2022-08-26T01:19:20.862Z,20.99
2022-08-26T01:20:20.870Z,20.97
2022-08-26T01:21:21.071Z,20.99
2022-08-26T01:22:20.877Z,20.97
2022-08-26T01:23:21.695Z,20.96
2022-08-26T01:24:20.891Z,20.99
2022-08-26T01:25:20.882Z,21.05
2022-08-26T01:26:20.889Z,21.03
2022-08-26T01:27:20.886Z,21.11
2022-08-26T01:28:20.895Z,21.07
2022-08-26T01:29:20.893Z,21.18
2022-08-26T01:30:20.910Z,21.21
2022-08-26T01:31:21.066Z,21.20
2022-08-26T01:32:20.904Z,21.18
2022-08-26T01:33:20.903Z,21.11
2022-08-26T01:34:20.920Z,21.12
2022-08-26T01:35:20.911Z,21.12
2022-08-26T01:36:20.914Z,21.12
2022-08-26T01:37:20.918Z,21.06
2022-08-26T01:38:20.921Z,21.20
2022-08-26T01:39:20.920Z,21.14
2022-08-26T01:40:20.997Z,21.14
2022-08-26T01:41:27.186Z,21.11
2022-08-26T01:42:20.941Z,21.05
2022-08-26T01:43:20.932Z,20.97
2022-08-26T01:44:20.940Z,20.96
2022-08-26T01:45:20.940Z,20.97
2022-08-26T01:46:20.945Z,21.02
2022-08-26T01:47:20.944Z,20.92
2022-08-26T01:48:20.951Z,20.95
2022-08-26T01:49:20.950Z,20.97
2022-08-26T01:50:28.017Z,21.02
2022-08-26T01:51:20.956Z,20.96
2022-08-26T01:52:20.963Z,20.97
2022-08-26T01:53:21.462Z,20.90
2022-08-26T01:54:20.963Z,20.92
2022-08-26T01:55:32.415Z,20.93
2022-08-26T01:56:20.970Z,20.90
2022-08-26T01:57:20.974Z,20.84
2022-08-26T01:58:20.979Z,20.82
2022-08-26T01:59:20.977Z,20.70
2022-08-26T02:00:20.981Z,20.62
2022-08-26T02:01:21.042Z,20.48
2022-08-26T02:02:20.989Z,20.56
2022-08-26T02:03:20.999Z,20.52
2022-08-26T02:04:21.075Z,20.39
2022-08-26T02:05:21.000Z,20.41
2022-08-26T02:06:21.000Z,20.36
2022-08-26T02:07:21.536Z,20.39
2022-08-26T02:08:24.825Z,20.34
2022-08-26T02:09:21.007Z,20.14
2022-08-26T02:10:21.010Z,20.22
2022-08-26T02:11:21.021Z,20.11
2022-08-26T02:12:21.018Z,20.14
2022-08-26T02:13:21.019Z,20.10
2022-08-26T02:14:21.023Z,20.09
2022-08-26T02:15:21.025Z,20.02
2022-08-26T02:16:21.080Z,19.92
2022-08-26T02:17:21.193Z,20.03
2022-08-26T02:18:21.032Z,20.00
2022-08-26T02:19:21.037Z,19.95
2022-08-26T02:20:21.039Z,20.00
2022-08-26T02:21:21.042Z,19.99
2022-08-26T02:22:21.046Z,19.99
2022-08-26T02:23:21.044Z,20.02
2022-08-26T02:24:21.052Z,20.00
2022-08-26T02:25:21.056Z,19.96
2022-08-26T02:26:21.056Z,19.99
2022-08-26T02:27:21.056Z,19.96
2022-08-26T02:28:21.063Z,20.02
2022-08-26T02:29:21.331Z,20.02
2022-08-26T02:30:21.068Z,20.06
2022-08-26T02:31:21.113Z,20.06
2022-08-26T02:32:21.072Z,20.02
2022-08-26T02:33:21.072Z,20.07
2022-08-26T02:34:21.076Z,20.06
2022-08-26T02:35:21.081Z,19.96
2022-08-26T02:36:21.082Z,19.99
2022-08-26T02:37:21.084Z,20.07
2022-08-26T02:38:21.087Z,20.02
2022-08-26T02:39:22.107Z,20.09
2022-08-26T02:40:21.138Z,20.07
2022-08-26T02:41:21.115Z,20.24
2022-08-26T02:42:21.099Z,20.25
2022-08-26T02:43:31.205Z,20.19
2022-08-26T02:44:21.105Z,20.25
2022-08-26T02:45:23.374Z,20.29
2022-08-26T02:46:21.537Z,20.14
2022-08-26T02:47:21.107Z,20.25
2022-08-26T02:48:21.112Z,20.26
2022-08-26T02:49:21.125Z,20.25
2022-08-26T02:50:21.116Z,20.28
2022-08-26T02:51:21.126Z,20.32
2022-08-26T02:52:21.126Z,20.34
2022-08-26T02:53:25.211Z,20.28
2022-08-26T02:54:21.124Z,20.24
2022-08-26T02:55:21.127Z,20.31
2022-08-26T02:56:21.134Z,20.26
2022-08-26T02:57:21.133Z,20.21
2022-08-26T02:58:21.134Z,20.21
2022-08-26T02:59:24.436Z,20.25
2022-08-26T03:00:21.197Z,20.22
2022-08-26T03:01:21.199Z,20.25
2022-08-26T03:02:21.256Z,20.25
2022-08-26T03:03:22.474Z,20.25
2022-08-26T03:04:21.151Z,20.25
2022-08-26T03:05:21.156Z,20.25
2022-08-26T03:06:21.154Z,20.18
2022-08-26T03:07:21.162Z,20.21
2022-08-26T03:08:21.173Z,20.28
2022-08-26T03:09:21.163Z,20.29
2022-08-26T03:10:21.167Z,20.41
2022-08-26T03:11:21.168Z,20.41
2022-08-26T03:12:21.172Z,20.29
2022-08-26T03:13:21.174Z,20.26
2022-08-26T03:14:21.178Z,20.29
2022-08-26T03:15:21.175Z,20.29
2022-08-26T03:16:21.266Z,20.28
2022-08-26T03:17:21.215Z,20.29
2022-08-26T03:18:21.186Z,20.26
2022-08-26T03:19:21.187Z,20.28
2022-08-26T03:20:21.195Z,20.25
2022-08-26T03:21:21.193Z,20.22
2022-08-26T03:22:21.199Z,20.24
2022-08-26T03:23:21.197Z,20.25
2022-08-26T03:24:21.201Z,20.16
2022-08-26T03:25:21.201Z,20.22
2022-08-26T03:26:21.354Z,20.31
2022-08-26T03:27:21.209Z,20.29
2022-08-26T03:28:21.211Z,20.36
2022-08-26T03:29:21.213Z,20.28
2022-08-26T03:30:21.212Z,20.29
2022-08-26T03:31:21.266Z,20.26
2022-08-26T03:32:21.235Z,20.25
2022-08-26T03:33:21.222Z,20.29
2022-08-26T03:34:21.225Z,20.28
2022-08-26T03:35:22.424Z,20.29
2022-08-26T03:36:21.229Z,20.40
2022-08-26T03:37:21.231Z,20.43
2022-08-26T03:38:21.236Z,20.40
2022-08-26T03:39:21.234Z,20.34
2022-08-26T03:40:21.294Z,20.36
2022-08-26T03:41:21.248Z,20.40
2022-08-26T03:42:21.430Z,20.40
2022-08-26T03:43:21.252Z,20.39
2022-08-26T03:44:21.249Z,20.51
2022-08-26T03:45:21.254Z,20.47
2022-08-26T03:46:21.327Z,20.52
2022-08-26T03:47:21.256Z,20.55
2022-08-26T03:48:21.256Z,20.58
2022-08-26T03:49:21.259Z,20.58
2022-08-26T03:50:23.000Z,20.60
2022-08-26T03:51:21.269Z,20.62
2022-08-26T03:52:21.267Z,20.63
2022-08-26T03:53:21.272Z,20.59
2022-08-26T03:54:21.274Z,20.60
2022-08-26T03:55:21.273Z,20.58
2022-08-26T03:56:21.277Z,20.74
2022-08-26T03:57:21.288Z,20.72
2022-08-26T03:58:21.316Z,20.60
2022-08-26T03:59:21.288Z,20.74
2022-08-26T04:00:21.285Z,20.72
2022-08-26T04:01:21.372Z,20.70
2022-08-26T04:02:21.292Z,20.70
2022-08-26T04:03:21.338Z,20.75
2022-08-26T04:04:22.870Z,20.69
2022-08-26T04:05:21.300Z,20.74
2022-08-26T04:06:21.304Z,20.70
2022-08-26T04:07:21.303Z,20.81
2022-08-26T04:08:21.308Z,20.80
2022-08-26T04:09:21.309Z,20.81
2022-08-26T04:10:21.312Z,20.84
2022-08-26T04:11:21.315Z,20.70
2022-08-26T04:12:21.316Z,20.82
2022-08-26T04:13:21.332Z,20.77
2022-08-26T04:14:21.319Z,20.87
2022-08-26T04:15:21.324Z,20.82
2022-08-26T04:16:21.412Z,20.78
2022-08-26T04:17:25.079Z,20.78
2022-08-26T04:18:21.332Z,20.82
2022-08-26T04:19:21.336Z,20.85
2022-08-26T04:20:21.335Z,20.84
2022-08-26T04:21:21.340Z,20.82
2022-08-26T04:22:24.070Z,20.82
2022-08-26T04:23:21.343Z,20.80
2022-08-26T04:24:21.345Z,20.78
2022-08-26T04:25:21.352Z,20.80
2022-08-26T04:26:21.553Z,20.77
2022-08-26T04:27:21.354Z,20.80
2022-08-26T04:28:21.354Z,20.90
2022-08-26T04:29:21.358Z,20.78
2022-08-26T04:30:21.359Z,20.85
2022-08-26T04:31:21.399Z,20.77
2022-08-26T04:32:21.363Z,20.81
2022-08-26T04:33:28.491Z,20.78
2022-08-26T04:34:21.369Z,20.80
2022-08-26T04:35:25.608Z,20.70
2022-08-26T04:36:21.402Z,20.77
2022-08-26T04:37:21.383Z,20.81
2022-08-26T04:38:21.392Z,20.81
2022-08-26T04:39:21.388Z,20.82
2022-08-26T04:40:21.416Z,20.81
2022-08-26T04:41:21.388Z,20.81
2022-08-26T04:42:22.867Z,20.82
2022-08-26T04:43:21.392Z,20.85
2022-08-26T04:44:21.392Z,20.90
2022-08-26T04:45:22.736Z,20.90
2022-08-26T04:46:21.478Z,20.85
2022-08-26T04:47:21.402Z,20.84
2022-08-26T04:48:21.401Z,20.87
2022-08-26T04:49:21.405Z,20.84
2022-08-26T04:50:21.407Z,20.81
2022-08-26T04:51:21.410Z,20.78
2022-08-26T04:52:21.410Z,20.77
2022-08-26T04:53:21.416Z,20.88
2022-08-26T04:54:21.416Z,20.78
2022-08-26T04:55:21.418Z,20.90
2022-08-26T04:56:21.418Z,20.84
2022-08-26T04:57:21.426Z,20.77
2022-08-26T04:58:21.423Z,20.88
2022-08-26T04:59:21.594Z,20.88
2022-08-26T05:00:21.428Z,20.87
2022-08-26T05:01:21.487Z,20.90
2022-08-26T05:02:21.433Z,20.84
2022-08-26T05:03:21.437Z,20.87
2022-08-26T05:04:21.499Z,20.90
2022-08-26T05:05:21.445Z,20.92
2022-08-26T05:06:22.070Z,20.92
2022-08-26T05:07:21.448Z,20.97
2022-08-26T05:08:21.462Z,20.92
2022-08-26T05:09:21.454Z,20.92
2022-08-26T05:10:21.454Z,20.93
2022-08-26T05:11:21.454Z,20.92
2022-08-26T05:12:21.463Z,20.96
2022-08-26T05:13:21.462Z,20.96
2022-08-26T05:14:21.461Z,21.00
2022-08-26T05:15:21.462Z,20.97
2022-08-26T05:16:21.504Z,20.99
2022-08-26T05:17:21.472Z,21.03
2022-08-26T05:18:21.475Z,20.99
2022-08-26T05:19:21.482Z,20.99
2022-08-26T05:20:25.586Z,21.00
2022-08-26T05:21:21.480Z,20.99
2022-08-26T05:22:21.477Z,21.06
2022-08-26T05:23:21.481Z,21.05
2022-08-26T05:24:21.481Z,20.99
2022-08-26T05:25:21.488Z,21.00
2022-08-26T05:26:23.021Z,21.00
2022-08-26T05:27:21.493Z,21.02
2022-08-26T05:28:21.492Z,21.00
2022-08-26T05:29:21.498Z,21.06
2022-08-26T05:30:21.495Z,21.07
2022-08-26T05:31:21.558Z,21.11
2022-08-26T05:32:21.503Z,21.06
2022-08-26T05:33:21.506Z,21.07
2022-08-26T05:34:21.508Z,21.14
2022-08-26T05:35:21.509Z,21.17
2022-08-26T05:36:21.565Z,21.18
2022-08-26T05:37:21.517Z,21.17
2022-08-26T05:38:21.521Z,21.14
2022-08-26T05:39:21.522Z,21.15
2022-08-26T05:40:21.568Z,21.21
2022-08-26T05:41:21.533Z,21.11
2022-08-26T05:42:21.530Z,21.24
2022-08-26T05:43:21.527Z,21.22
2022-08-26T05:44:22.355Z,21.22
2022-08-26T05:45:21.534Z,21.17
2022-08-26T05:46:21.604Z,21.22
2022-08-26T05:47:21.551Z,21.22
2022-08-26T05:48:22.756Z,21.21
2022-08-26T05:49:22.468Z,21.24
2022-08-26T05:50:21.543Z,21.27
2022-08-26T05:51:25.752Z,21.18
2022-08-26T05:52:21.547Z,21.29
2022-08-26T05:53:21.553Z,21.25
2022-08-26T05:54:22.263Z,21.29
2022-08-26T05:55:21.558Z,21.22
2022-08-26T05:56:21.557Z,21.24
2022-08-26T05:57:23.234Z,21.20
2022-08-26T05:58:21.565Z,21.21
2022-08-26T05:59:24.531Z,21.25
2022-08-26T06:00:21.568Z,21.22
2022-08-26T06:01:21.666Z,21.24
2022-08-26T06:02:21.639Z,21.21
2022-08-26T06:03:21.580Z,21.27
2022-08-26T06:04:21.575Z,21.21
2022-08-26T06:05:21.583Z,21.20
2022-08-26T06:06:28.107Z,21.22
2022-08-26T06:07:21.587Z,21.24
2022-08-26T06:08:21.588Z,21.25
2022-08-26T06:09:21.592Z,21.24
2022-08-26T06:10:32.202Z,21.29
2022-08-26T06:11:21.597Z,21.17
2022-08-26T06:12:21.603Z,21.20
2022-08-26T06:13:21.611Z,21.21
2022-08-26T06:14:21.600Z,21.18
2022-08-26T06:15:21.603Z,21.29
2022-08-26T06:16:21.687Z,21.24
2022-08-26T06:17:21.614Z,21.21
2022-08-26T06:18:21.618Z,21.25
2022-08-26T06:19:21.637Z,21.24
2022-08-26T06:20:21.617Z,21.29
2022-08-26T06:21:21.622Z,21.24
2022-08-26T06:22:23.534Z,21.18
2022-08-26T06:23:21.626Z,21.17
2022-08-26T06:24:21.626Z,21.25
2022-08-26T06:25:21.630Z,21.20
2022-08-26T06:26:21.982Z,21.24
2022-08-26T06:27:21.635Z,21.27
2022-08-26T06:28:21.635Z,21.21
2022-08-26T06:29:24.481Z,21.30
2022-08-26T06:30:21.639Z,21.27
2022-08-26T06:31:21.748Z,21.22
2022-08-26T06:32:21.677Z,21.20
2022-08-26T06:33:21.652Z,21.27
2022-08-26T06:34:21.653Z,21.27
2022-08-26T06:35:21.651Z,21.29
2022-08-26T06:36:21.656Z,21.33
2022-08-26T06:37:21.656Z,21.25
2022-08-26T06:38:21.656Z,21.22
2022-08-26T06:39:21.665Z,21.21
2022-08-26T06:40:21.713Z,21.25
2022-08-26T06:41:21.668Z,21.25
2022-08-26T06:42:21.671Z,21.27
2022-08-26T06:43:21.688Z,21.25
2022-08-26T06:44:21.671Z,21.29
2022-08-26T06:45:21.678Z,21.30
2022-08-26T06:46:21.800Z,21.29
2022-08-26T06:47:21.680Z,21.29
2022-08-26T06:48:21.684Z,21.37
2022-08-26T06:49:25.791Z,21.25
2022-08-26T06:50:21.686Z,21.30
2022-08-26T06:51:22.420Z,21.29
2022-08-26T06:52:24.460Z,21.25
2022-08-26T06:53:21.693Z,21.33
2022-08-26T06:54:21.695Z,21.32
2022-08-26T06:55:21.703Z,21.30
2022-08-26T06:56:21.709Z,21.39
2022-08-26T06:57:21.708Z,21.39
2022-08-26T06:58:21.872Z,21.42
2022-08-26T06:59:21.721Z,21.27
2022-08-26T07:00:21.714Z,21.30
2022-08-26T07:01:21.794Z,21.30
2022-08-26T07:02:21.736Z,21.29
2022-08-26T07:03:21.718Z,21.36
2022-08-26T07:04:22.349Z,21.36
2022-08-26T07:05:21.724Z,21.30
2022-08-26T07:06:21.725Z,21.29
2022-08-26T07:07:22.035Z,21.32
2022-08-26T07:08:21.729Z,21.35
2022-08-26T07:09:21.898Z,21.33
2022-08-26T07:10:21.737Z,21.36
2022-08-26T07:11:21.738Z,21.32
2022-08-26T07:12:21.737Z,21.33
2022-08-26T07:13:30.774Z,21.37
2022-08-26T07:14:22.066Z,21.35
2022-08-26T07:15:23.864Z,21.46
2022-08-26T07:16:21.804Z,21.37
2022-08-26T07:17:21.750Z,21.32
2022-08-26T07:18:21.794Z,21.39
2022-08-26T07:19:30.657Z,21.43
2022-08-26T07:20:21.759Z,21.46
2022-08-26T07:21:21.761Z,21.46
2022-08-26T07:22:21.764Z,21.50
2022-08-26T07:23:21.768Z,21.45
2022-08-26T07:24:21.767Z,21.48
2022-08-26T07:25:21.770Z,21.50
2022-08-26T07:26:22.021Z,21.43
2022-08-26T07:27:21.772Z,21.42
2022-08-26T07:28:21.774Z,21.46
2022-08-26T07:29:21.782Z,21.43
2022-08-26T07:30:21.862Z,21.42
2022-08-26T07:31:21.850Z,21.51
2022-08-26T07:32:22.856Z,21.52
2022-08-26T07:33:21.789Z,21.48
2022-08-26T07:34:21.787Z,21.48
2022-08-26T07:35:21.792Z,21.51
2022-08-26T07:36:21.794Z,21.51
2022-08-26T07:37:21.797Z,21.52
2022-08-26T07:38:21.800Z,21.54
2022-08-26T07:39:21.801Z,21.52
2022-08-26T07:40:21.931Z,21.55
2022-08-26T07:41:21.887Z,21.52
2022-08-26T07:42:21.807Z,21.54
2022-08-26T07:43:21.810Z,21.50
2022-08-26T07:44:21.811Z,21.57
2022-08-26T07:45:21.819Z,21.51
2022-08-26T07:46:27.428Z,21.57
2022-08-26T07:47:24.860Z,21.57
2022-08-26T07:48:21.819Z,21.61
2022-08-26T07:49:21.947Z,21.61
2022-08-26T07:50:21.824Z,21.58
2022-08-26T07:51:21.829Z,21.58
2022-08-26T07:52:26.382Z,21.58
2022-08-26T07:53:21.835Z,21.64
2022-08-26T07:54:26.978Z,21.57
2022-08-26T07:55:21.855Z,21.51
2022-08-26T07:56:21.856Z,21.51
2022-08-26T07:57:21.849Z,21.48
2022-08-26T07:58:21.847Z,21.54
2022-08-26T07:59:21.865Z,21.50
2022-08-26T08:00:21.851Z,21.50
2022-08-26T08:01:21.905Z,21.54
2022-08-26T08:02:21.867Z,21.48
2022-08-26T08:03:21.862Z,21.48
2022-08-26T08:04:26.058Z,21.51
2022-08-26T08:05:21.944Z,21.54
2022-08-26T08:06:21.868Z,21.51
2022-08-26T08:07:25.780Z,21.52
2022-08-26T08:08:27.579Z,21.48
2022-08-26T08:09:22.394Z,21.46
2022-08-26T08:10:21.873Z,21.52
2022-08-26T08:11:21.874Z,21.50
2022-08-26T08:12:21.880Z,21.50
2022-08-26T08:13:21.880Z,21.50
2022-08-26T08:14:22.208Z,21.54
2022-08-26T08:15:21.886Z,21.60
2022-08-26T08:16:21.925Z,21.52
2022-08-26T08:17:21.892Z,21.60
2022-08-26T08:18:21.893Z,21.55
2022-08-26T08:19:21.916Z,21.57
2022-08-26T08:20:21.904Z,21.55
2022-08-26T08:21:23.768Z,21.57
2022-08-26T08:22:21.901Z,21.58
2022-08-26T08:23:21.902Z,21.57
2022-08-26T08:24:21.910Z,21.52
2022-08-26T08:25:21.910Z,21.58
2022-08-26T08:26:22.075Z,21.52
2022-08-26T08:27:24.055Z,21.58
2022-08-26T08:28:21.914Z,21.58
2022-08-26T08:29:21.921Z,21.55
2022-08-26T08:30:22.843Z,21.57
2022-08-26T08:31:45.032Z,21.51
2022-08-26T08:32:21.929Z,21.51
2022-08-26T08:33:21.927Z,21.52
2022-08-26T08:34:21.931Z,21.50
2022-08-26T08:35:21.932Z,21.52
2022-08-26T08:36:21.936Z,21.50
2022-08-26T08:37:21.939Z,21.52
2022-08-26T08:38:21.940Z,21.48
2022-08-26T08:39:22.320Z,21.52
2022-08-26T08:40:22.001Z,21.51
2022-08-26T08:41:21.946Z,21.51
2022-08-26T08:42:23.668Z,21.52
2022-08-26T08:43:21.954Z,21.51
2022-08-26T08:45:21.955Z,21.48
2022-08-26T08:46:21.990Z,21.50
2022-08-26T08:47:21.962Z,21.48
2022-08-26T08:48:22.288Z,21.51
2022-08-26T08:49:21.964Z,21.46
2022-08-26T08:50:21.973Z,21.48
2022-08-26T08:51:21.976Z,21.52
2022-08-26T08:52:21.977Z,21.54
2022-08-26T08:53:21.977Z,21.52
2022-08-26T08:54:22.118Z,21.55
2022-08-26T08:55:21.986Z,21.51
2022-08-26T08:56:21.999Z,21.50
2022-08-26T08:57:21.987Z,21.52
2022-08-26T08:58:21.989Z,21.46
2022-08-26T08:59:21.987Z,21.48
2022-08-26T09:00:21.996Z,21.45
2022-08-26T09:01:22.123Z,21.48
2022-08-26T09:02:22.045Z,21.43
2022-08-26T09:03:21.999Z,21.55
2022-08-26T09:04:22.002Z,21.60
2022-08-26T09:05:22.004Z,21.54
2022-08-26T09:06:22.008Z,21.50
2022-08-26T09:07:22.007Z,21.48
2022-08-26T09:08:22.011Z,21.48
2022-08-26T09:09:22.013Z,21.50
2022-08-26T09:10:22.015Z,21.46
2022-08-26T09:11:22.018Z,21.36
2022-08-26T09:12:29.617Z,21.48
2022-08-26T09:13:25.135Z,21.50
2022-08-26T09:14:22.027Z,21.48
2022-08-26T09:15:22.027Z,21.46
2022-08-26T09:16:22.050Z,21.51
2022-08-26T09:17:22.032Z,21.48
2022-08-26T09:18:22.038Z,21.51
2022-08-26T09:19:22.035Z,21.58
2022-08-26T09:20:22.039Z,21.54
2022-08-26T09:21:22.046Z,21.57
2022-08-26T09:23:22.046Z,21.60
2022-08-26T09:24:22.287Z,21.64
2022-08-26T09:25:22.071Z,21.69
2022-08-26T09:26:24.793Z,21.60
2022-08-26T09:27:22.056Z,21.60
2022-08-26T09:28:22.064Z,21.72
2022-08-26T09:30:22.061Z,21.67
2022-08-26T09:31:22.147Z,21.62
2022-08-26T09:32:22.072Z,21.57
2022-08-26T09:33:22.069Z,21.67
2022-08-26T09:34:22.076Z,21.70
2022-08-26T09:35:22.074Z,21.70
2022-08-26T09:36:22.081Z,21.66
2022-08-26T09:37:22.078Z,21.69
2022-08-26T09:38:22.080Z,21.67
2022-08-26T09:39:22.081Z,21.66
2022-08-26T09:40:22.132Z,21.70
2022-08-26T09:41:22.087Z,21.67
2022-08-26T09:42:22.095Z,21.77
2022-08-26T09:43:23.123Z,21.75
2022-08-26T09:44:22.097Z,21.67
2022-08-26T09:45:22.106Z,21.70
2022-08-26T09:46:22.231Z,21.73
2022-08-26T09:47:22.101Z,21.69
2022-08-26T09:48:22.107Z,21.72
2022-08-26T09:49:22.108Z,21.80
2022-08-26T09:50:22.113Z,21.80
2022-08-26T09:51:22.114Z,21.83
2022-08-26T09:52:22.118Z,21.80
2022-08-26T09:53:28.588Z,21.80
2022-08-26T09:54:22.122Z,21.79
2022-08-26T09:55:22.124Z,21.82
2022-08-26T09:56:22.125Z,21.75
2022-08-26T09:57:22.128Z,21.80
2022-08-26T09:58:22.128Z,21.69
2022-08-26T09:59:22.132Z,21.73
2022-08-26T10:00:22.136Z,21.79
2022-08-26T10:01:22.167Z,21.72
2022-08-26T10:02:22.139Z,21.75
2022-08-26T10:03:22.201Z,21.75
2022-08-26T10:04:22.253Z,21.76
2022-08-26T10:05:22.149Z,21.77
2022-08-26T10:06:22.151Z,21.77
2022-08-26T10:07:22.155Z,21.72
2022-08-26T10:08:23.143Z,21.72
2022-08-26T10:09:22.158Z,21.69
2022-08-26T10:10:22.160Z,21.72
2022-08-26T10:11:22.161Z,21.64
2022-08-26T10:12:22.166Z,21.73
2022-08-26T10:13:22.165Z,21.72
2022-08-26T10:14:22.166Z,21.72
2022-08-26T10:15:22.392Z,21.72
2022-08-26T10:16:22.263Z,21.79
2022-08-26T10:17:22.175Z,21.79
2022-08-26T10:18:22.176Z,21.83
2022-08-26T10:19:22.177Z,21.80
2022-08-26T10:20:23.253Z,21.91
2022-08-26T10:21:22.184Z,21.92
2022-08-26T10:22:22.186Z,21.92
2022-08-26T10:23:23.271Z,21.92
2022-08-26T10:24:22.193Z,21.92
2022-08-26T10:25:22.194Z,21.89
2022-08-26T10:26:22.548Z,21.96
2022-08-26T10:27:22.198Z,21.96
2022-08-26T10:28:22.202Z,21.88
2022-08-26T10:29:22.259Z,21.82
2022-08-26T10:30:22.207Z,21.89
2022-08-26T10:31:23.003Z,21.92
2022-08-26T10:32:22.288Z,21.96
2022-08-26T10:33:22.213Z,21.96
2022-08-26T10:34:22.226Z,22.00
2022-08-26T10:35:22.223Z,22.00
2022-08-26T10:36:22.229Z,22.00
2022-08-26T10:37:22.225Z,22.11
2022-08-26T10:38:22.228Z,22.17
2022-08-26T10:39:22.233Z,22.11
2022-08-26T10:40:22.293Z,22.15
2022-08-26T10:41:22.236Z,22.15
2022-08-26T10:42:22.282Z,22.18
2022-08-26T10:43:22.252Z,22.10
2022-08-26T10:44:22.242Z,22.18
2022-08-26T10:45:22.245Z,22.22
2022-08-26T10:46:22.301Z,22.17
2022-08-26T10:47:22.247Z,22.18
2022-08-26T10:48:22.257Z,22.20
2022-08-26T10:49:22.255Z,22.15
2022-08-26T10:50:22.254Z,22.20
2022-08-26T10:51:22.256Z,22.26
2022-08-26T10:52:22.330Z,22.26
2022-08-26T10:53:25.205Z,22.22
2022-08-26T10:54:22.268Z,22.17
2022-08-26T10:55:22.268Z,22.17
2022-08-26T10:56:22.271Z,22.20
2022-08-26T10:57:22.283Z,22.20
2022-08-26T10:58:26.733Z,22.18
2022-08-26T10:59:22.276Z,22.18
2022-08-26T11:00:22.280Z,22.20
2022-08-26T11:01:22.719Z,22.20
2022-08-26T11:02:25.031Z,22.23
2022-08-26T11:03:22.601Z,22.18
2022-08-26T11:04:22.710Z,22.17
2022-08-26T11:05:22.294Z,22.17
2022-08-26T11:06:22.292Z,22.22
2022-08-26T11:07:22.296Z,22.29
2022-08-26T11:08:22.302Z,22.32
2022-08-26T11:09:22.302Z,22.30
2022-08-26T11:10:22.305Z,22.35
2022-08-26T11:11:22.306Z,22.29
2022-08-26T11:12:22.308Z,22.44
2022-08-26T11:13:22.319Z,22.44
2022-08-26T11:14:29.278Z,22.47
2022-08-26T11:15:24.715Z,22.50
2022-08-26T11:16:22.361Z,22.36
2022-08-26T11:17:22.321Z,22.50
2022-08-26T11:18:22.324Z,22.48
2022-08-26T11:19:22.325Z,22.41
2022-08-26T11:20:22.329Z,22.50
2022-08-26T11:21:22.364Z,22.54
2022-08-26T11:22:22.334Z,22.47
2022-08-26T11:23:22.355Z,22.57
2022-08-26T11:24:22.338Z,22.53
2022-08-26T11:25:26.437Z,22.55
2022-08-26T11:26:35.638Z,22.51
2022-08-26T11:27:22.378Z,22.53
2022-08-26T11:28:22.351Z,22.65
2022-08-26T11:29:22.357Z,22.72
2022-08-26T11:30:22.375Z,22.66
2022-08-26T11:31:22.384Z,22.76
2022-08-26T11:32:22.359Z,22.78
2022-08-26T11:33:22.362Z,22.87
2022-08-26T11:34:22.365Z,22.87
2022-08-26T11:35:22.369Z,22.87
2022-08-26T11:36:22.372Z,22.88
2022-08-26T11:37:22.374Z,22.80
2022-08-26T11:38:22.404Z,22.99
2022-08-26T11:39:22.378Z,22.96
2022-08-26T11:40:22.465Z,23.03
2022-08-26T11:41:22.388Z,22.96
2022-08-26T11:42:22.385Z,22.96
2022-08-26T11:43:22.389Z,22.98
2022-08-26T11:44:22.389Z,23.03
2022-08-26T11:45:22.452Z,22.96
2022-08-26T11:46:22.396Z,23.00
2022-08-26T11:47:22.397Z,23.05
2022-08-26T11:48:22.402Z,23.00
2022-08-26T11:49:22.406Z,22.99
2022-08-26T11:50:22.409Z,22.99
2022-08-26T11:51:22.408Z,23.00
2022-08-26T11:52:22.411Z,23.03
2022-08-26T11:53:22.411Z,23.10
2022-08-26T11:54:30.556Z,23.05
2022-08-26T11:55:23.232Z,23.08
2022-08-26T11:56:22.419Z,23.12
2022-08-26T11:57:22.423Z,23.13
2022-08-26T11:58:22.423Z,23.18
2022-08-26T11:59:22.477Z,23.18
2022-08-26T12:00:22.844Z,23.13
2022-08-26T12:01:22.432Z,23.13
2022-08-26T12:02:22.436Z,23.20
2022-08-26T12:03:23.017Z,23.18
2022-08-26T12:04:22.529Z,23.18
2022-08-26T12:05:22.441Z,23.18
2022-08-26T12:06:22.463Z,23.17
2022-08-26T12:07:24.136Z,23.17
2022-08-26T12:08:22.452Z,23.15
2022-08-26T12:09:22.455Z,23.18
2022-08-26T12:10:22.454Z,23.15
2022-08-26T12:11:22.488Z,23.17
2022-08-26T12:12:22.465Z,23.09
2022-08-26T12:13:22.477Z,23.08
2022-08-26T12:14:22.465Z,23.13
2022-08-26T12:15:22.468Z,23.09
2022-08-26T12:16:22.519Z,23.17
2022-08-26T12:17:22.700Z,23.06
2022-08-26T12:18:28.912Z,23.09
2022-08-26T12:19:22.484Z,23.08
2022-08-26T12:20:22.491Z,23.00
2022-08-26T12:21:22.497Z,22.96
2022-08-26T12:22:22.485Z,22.94
2022-08-26T12:23:22.491Z,22.91
2022-08-26T12:24:22.505Z,22.96
2022-08-26T12:25:22.500Z,22.99
2022-08-26T12:26:22.746Z,22.94
2022-08-26T12:27:22.521Z,22.98
2022-08-26T12:28:23.217Z,22.93
2022-08-26T12:29:26.672Z,22.96
2022-08-26T12:30:22.533Z,22.94
2022-08-26T12:31:22.606Z,23.05
2022-08-26T12:32:22.514Z,22.96
2022-08-26T12:33:23.364Z,23.03
2022-08-26T12:34:22.518Z,22.93
2022-08-26T12:35:22.522Z,22.94
2022-08-26T12:36:22.529Z,22.99
2022-08-26T12:37:22.531Z,22.99
2022-08-26T12:38:22.529Z,23.02
2022-08-26T12:39:22.536Z,23.06
2022-08-26T12:40:22.607Z,23.08
2022-08-26T12:41:22.539Z,23.08
2022-08-26T12:42:22.539Z,23.17
2022-08-26T12:43:22.544Z,23.18
2022-08-26T12:44:22.548Z,23.20
2022-08-26T12:45:22.565Z,23.25
2022-08-26T12:46:22.553Z,23.13
2022-08-26T12:47:30.825Z,23.31
2022-08-26T12:48:24.594Z,23.31
2022-08-26T12:49:22.561Z,23.34
2022-08-26T12:50:22.561Z,23.31
2022-08-26T12:51:22.564Z,23.27
2022-08-26T12:52:22.567Z,23.32
2022-08-26T12:53:22.632Z,23.41
2022-08-26T12:54:22.573Z,23.28
2022-08-26T12:55:22.577Z,23.32